sensor_id;sensor_type;location;lat;lon;timestamp;pressure;altitude;pressure_sealevel;temperature;humidity
36138;BME280;22194;50.046;21.954;2022-11-23T00:01:37;98045.19;;;-0.75;72.06
36138;BME280;22194;50.046;21.954;2022-11-23T00:04:16;98044.23;;;-0.73;72.27
36138;BME280;22194;50.046;21.954;2022-11-23T00:06:45;98043.79;;;-0.70;72.33
36138;BME280;22194;50.046;21.954;2022-11-23T00:09:13;98041.92;;;-0.68;72.33
36138;BME280;22194;50.046;21.954;2022-11-23T00:11:40;98046.79;;;-0.67;72.37
36138;BME280;22194;50.046;21.954;2022-11-23T00:14:13;98044.23;;;-0.65;72.43
36138;BME280;22194;50.046;21.954;2022-11-23T00:16:41;98043.72;;;-0.61;72.48
36138;BME280;22194;50.046;21.954;2022-11-23T00:19:09;98043.60;;;-0.58;72.25
36138;BME280;22194;50.046;21.954;2022-11-23T00:21:39;98041.09;;;-0.61;72.19
36138;BME280;22194;50.046;21.954;2022-11-23T00:24:14;98039.91;;;-0.61;72.46
36138;BME280;22194;50.046;21.954;2022-11-23T00:26:42;98037.54;;;-0.59;72.44
36138;BME280;22194;50.046;21.954;2022-11-23T00:29:10;98036.97;;;-0.58;72.53
36138;BME280;22194;50.046;21.954;2022-11-23T00:31:38;98034.34;;;-0.62;72.50
36138;BME280;22194;50.046;21.954;2022-11-23T00:34:06;98033.11;;;-0.65;72.55
36138;BME280;22194;50.046;21.954;2022-11-23T00:36:34;98035.92;;;-0.66;72.54
36138;BME280;22194;50.046;21.954;2022-11-23T00:39:06;98034.54;;;-0.66;72.62
36138;BME280;22194;50.046;21.954;2022-11-23T00:41:34;98035.82;;;-0.63;72.76
36138;BME280;22194;50.046;21.954;2022-11-23T00:44:02;98032.77;;;-0.65;72.54
36138;BME280;22194;50.046;21.954;2022-11-23T00:46:30;98027.59;;;-0.70;72.56
36138;BME280;22194;50.046;21.954;2022-11-23T00:49:01;98026.17;;;-0.74;72.62
36138;BME280;22194;50.046;21.954;2022-11-23T00:51:36;98028.45;;;-0.74;72.75
36138;BME280;22194;50.046;21.954;2022-11-23T00:54:04;98033.77;;;-0.72;72.64
36138;BME280;22194;50.046;21.954;2022-11-23T00:56:37;98029.52;;;-0.74;72.84
36138;BME280;22194;50.046;21.954;2022-11-23T00:59:09;98029.51;;;-0.75;72.86
36138;BME280;22194;50.046;21.954;2022-11-23T01:01:37;98025.53;;;-0.75;72.76
36138;BME280;22194;50.046;21.954;2022-11-23T01:04:09;98028.67;;;-0.76;72.77
36138;BME280;22194;50.046;21.954;2022-11-23T01:06:43;98031.08;;;-0.74;72.81
36138;BME280;22194;50.046;21.954;2022-11-23T01:09:17;98032.74;;;-0.72;72.90
36138;BME280;22194;50.046;21.954;2022-11-23T01:11:45;98034.72;;;-0.74;72.74
36138;BME280;22194;50.046;21.954;2022-11-23T01:14:15;98036.52;;;-0.75;73.01
36138;BME280;22194;50.046;21.954;2022-11-23T01:16:48;98033.21;;;-0.80;72.90
36138;BME280;22194;50.046;21.954;2022-11-23T01:19:20;98027.02;;;-0.81;73.00
36138;BME280;22194;50.046;21.954;2022-11-23T01:21:50;98026.31;;;-0.85;72.78
36138;BME280;22194;50.046;21.954;2022-11-23T01:24:23;98019.54;;;-0.85;72.94
36138;BME280;22194;50.046;21.954;2022-11-23T01:26:55;98025.73;;;-0.83;73.02
36138;BME280;22194;50.046;21.954;2022-11-23T01:29:24;98030.16;;;-0.81;73.03
36138;BME280;22194;50.046;21.954;2022-11-23T01:31:57;98030.80;;;-0.80;73.05
36138;BME280;22194;50.046;21.954;2022-11-23T01:34:25;98034.45;;;-0.80;73.19
36138;BME280;22194;50.046;21.954;2022-11-23T01:36:53;98034.23;;;-0.79;73.28
36138;BME280;22194;50.046;21.954;2022-11-23T01:39:21;98030.92;;;-0.79;73.20
36138;BME280;22194;50.046;21.954;2022-11-23T01:41:48;98031.11;;;-0.80;73.25
36138;BME280;22194;50.046;21.954;2022-11-23T01:44:29;98030.33;;;-0.82;73.20
36138;BME280;22194;50.046;21.954;2022-11-23T01:47:06;98031.03;;;-0.78;73.24
36138;BME280;22194;50.046;21.954;2022-11-23T01:49:50;98036.80;;;-0.74;73.37
36138;BME280;22194;50.046;21.954;2022-11-23T01:52:22;98033.15;;;-0.70;73.54
36138;BME280;22194;50.046;21.954;2022-11-23T01:55:01;98033.77;;;-0.68;73.39
36138;BME280;22194;50.046;21.954;2022-11-23T01:57:45;98022.85;;;-0.65;73.38
36138;BME280;22194;50.046;21.954;2022-11-23T02:00:15;98026.79;;;-0.64;73.57
36138;BME280;22194;50.046;21.954;2022-11-23T02:02:58;98022.75;;;-0.63;73.52
36138;BME280;22194;50.046;21.954;2022-11-23T02:05:42;98021.21;;;-0.60;73.52
36138;BME280;22194;50.046;21.954;2022-11-23T02:08:15;98020.20;;;-0.57;73.51
36138;BME280;22194;50.046;21.954;2022-11-23T02:10:49;98023.18;;;-0.53;73.55
36138;BME280;22194;50.046;21.954;2022-11-23T02:13:22;98027.98;;;-0.51;73.53
36138;BME280;22194;50.046;21.954;2022-11-23T02:15:56;98020.23;;;-0.49;73.62
36138;BME280;22194;50.046;21.954;2022-11-23T02:18:31;98022.42;;;-0.48;73.53
36138;BME280;22194;50.046;21.954;2022-11-23T02:21:06;98020.64;;;-0.47;73.61
36138;BME280;22194;50.046;21.954;2022-11-23T02:24:02;98020.58;;;-0.45;73.63
36138;BME280;22194;50.046;21.954;2022-11-23T02:26:38;98015.86;;;-0.45;73.62
36138;BME280;22194;50.046;21.954;2022-11-23T02:29:17;98016.55;;;-0.45;73.66
36138;BME280;22194;50.046;21.954;2022-11-23T02:31:46;98013.19;;;-0.43;73.77
36138;BME280;22194;50.046;21.954;2022-11-23T02:34:20;98011.60;;;-0.42;73.74
36138;BME280;22194;50.046;21.954;2022-11-23T02:36:54;98011.30;;;-0.48;73.83
36138;BME280;22194;50.046;21.954;2022-11-23T02:39:47;98011.16;;;-0.49;73.77
36138;BME280;22194;50.046;21.954;2022-11-23T02:42:17;98009.20;;;-0.48;73.88
36138;BME280;22194;50.046;21.954;2022-11-23T02:47:29;98009.69;;;-0.47;73.84
36138;BME280;22194;50.046;21.954;2022-11-23T02:50:02;98010.48;;;-0.45;73.96
36138;BME280;22194;50.046;21.954;2022-11-23T02:52:31;98004.66;;;-0.48;73.88
36138;BME280;22194;50.046;21.954;2022-11-23T02:54:59;98002.27;;;-0.49;73.97
36138;BME280;22194;50.046;21.954;2022-11-23T02:57:27;98001.88;;;-0.48;74.01
36138;BME280;22194;50.046;21.954;2022-11-23T02:59:55;98002.35;;;-0.47;74.09
36138;BME280;22194;50.046;21.954;2022-11-23T03:02:22;97999.84;;;-0.45;74.22
36138;BME280;22194;50.046;21.954;2022-11-23T03:04:54;97999.39;;;-0.47;74.24
36138;BME280;22194;50.046;21.954;2022-11-23T03:07:22;97996.31;;;-0.48;74.17
36138;BME280;22194;50.046;21.954;2022-11-23T03:09:55;97994.66;;;-0.46;74.16
36138;BME280;22194;50.046;21.954;2022-11-23T03:12:23;97996.83;;;-0.44;74.17
36138;BME280;22194;50.046;21.954;2022-11-23T03:14:53;97990.76;;;-0.41;74.11
36138;BME280;22194;50.046;21.954;2022-11-23T03:17:21;97989.94;;;-0.38;74.23
36138;BME280;22194;50.046;21.954;2022-11-23T03:19:49;97983.55;;;-0.35;74.20
36138;BME280;22194;50.046;21.954;2022-11-23T03:22:17;97980.28;;;-0.32;74.16
36138;BME280;22194;50.046;21.954;2022-11-23T03:24:45;97980.02;;;-0.30;74.28
36138;BME280;22194;50.046;21.954;2022-11-23T03:27:13;97979.66;;;-0.30;74.20
36138;BME280;22194;50.046;21.954;2022-11-23T03:29:50;97985.77;;;-0.30;74.28
36138;BME280;22194;50.046;21.954;2022-11-23T03:32:18;97987.44;;;-0.29;74.37
36138;BME280;22194;50.046;21.954;2022-11-23T03:34:46;97978.65;;;-0.27;74.36
36138;BME280;22194;50.046;21.954;2022-11-23T03:37:14;97981.01;;;-0.25;74.31
36138;BME280;22194;50.046;21.954;2022-11-23T03:39:42;97980.09;;;-0.24;74.37
36138;BME280;22194;50.046;21.954;2022-11-23T03:42:14;97973.80;;;-0.24;74.40
36138;BME280;22194;50.046;21.954;2022-11-23T03:44:42;97974.17;;;-0.24;74.34
36138;BME280;22194;50.046;21.954;2022-11-23T03:47:10;97972.50;;;-0.22;74.47
36138;BME280;22194;50.046;21.954;2022-11-23T03:49:41;97970.59;;;-0.22;74.32
36138;BME280;22194;50.046;21.954;2022-11-23T03:52:12;97975.66;;;-0.23;74.34
36138;BME280;22194;50.046;21.954;2022-11-23T03:54:40;97979.06;;;-0.24;74.42
36138;BME280;22194;50.046;21.954;2022-11-23T03:57:08;97988.13;;;-0.25;74.54
36138;BME280;22194;50.046;21.954;2022-11-23T03:59:36;97987.08;;;-0.24;74.46
36138;BME280;22194;50.046;21.954;2022-11-23T04:02:04;97986.21;;;-0.24;74.63
36138;BME280;22194;50.046;21.954;2022-11-23T04:04:38;97985.23;;;-0.26;74.51
36138;BME280;22194;50.046;21.954;2022-11-23T04:07:06;97988.38;;;-0.26;74.59
36138;BME280;22194;50.046;21.954;2022-11-23T04:09:39;97986.63;;;-0.26;74.56
36138;BME280;22194;50.046;21.954;2022-11-23T04:12:10;97986.70;;;-0.24;74.67
36138;BME280;22194;50.046;21.954;2022-11-23T04:14:37;97989.20;;;-0.21;74.53
36138;BME280;22194;50.046;21.954;2022-11-23T04:17:06;97992.30;;;-0.21;74.63
36138;BME280;22194;50.046;21.954;2022-11-23T04:19:33;97998.08;;;-0.25;74.47
36138;BME280;22194;50.046;21.954;2022-11-23T04:22:06;98010.19;;;-0.26;74.61
36138;BME280;22194;50.046;21.954;2022-11-23T04:24:35;98013.10;;;-0.26;74.53
36138;BME280;22194;50.046;21.954;2022-11-23T04:27:03;98011.30;;;-0.24;74.51
36138;BME280;22194;50.046;21.954;2022-11-23T04:29:31;97999.26;;;-0.24;74.64
36138;BME280;22194;50.046;21.954;2022-11-23T04:32:04;97997.92;;;-0.25;74.63
36138;BME280;22194;50.046;21.954;2022-11-23T04:34:32;97999.93;;;-0.27;74.66
36138;BME280;22194;50.046;21.954;2022-11-23T04:37:03;98004.16;;;-0.29;74.69
36138;BME280;22194;50.046;21.954;2022-11-23T04:39:38;98006.29;;;-0.29;74.67
36138;BME280;22194;50.046;21.954;2022-11-23T04:42:05;98009.05;;;-0.28;74.65
36138;BME280;22194;50.046;21.954;2022-11-23T04:44:33;98012.08;;;-0.30;74.67
36138;BME280;22194;50.046;21.954;2022-11-23T04:47:01;98017.21;;;-0.32;74.76
36138;BME280;22194;50.046;21.954;2022-11-23T04:49:31;98018.11;;;-0.33;74.82
36138;BME280;22194;50.046;21.954;2022-11-23T04:52:08;98016.00;;;-0.33;74.78
36138;BME280;22194;50.046;21.954;2022-11-23T04:54:36;98016.86;;;-0.32;74.87
36138;BME280;22194;50.046;21.954;2022-11-23T04:57:04;98020.04;;;-0.29;74.84
36138;BME280;22194;50.046;21.954;2022-11-23T04:59:32;98017.38;;;-0.28;74.81
36138;BME280;22194;50.046;21.954;2022-11-23T05:02:01;98017.45;;;-0.29;74.88
36138;BME280;22194;50.046;21.954;2022-11-23T05:04:29;98014.17;;;-0.30;74.89
36138;BME280;22194;50.046;21.954;2022-11-23T05:07:00;98012.95;;;-0.31;74.78
36138;BME280;22194;50.046;21.954;2022-11-23T05:09:29;98005.63;;;-0.31;74.89
36138;BME280;22194;50.046;21.954;2022-11-23T05:11:59;98004.09;;;-0.31;74.83
36138;BME280;22194;50.046;21.954;2022-11-23T05:14:27;97997.31;;;-0.35;74.66
36138;BME280;22194;50.046;21.954;2022-11-23T05:16:55;97996.41;;;-0.39;74.87
36138;BME280;22194;50.046;21.954;2022-11-23T05:19:23;98003.40;;;-0.39;74.86
36138;BME280;22194;50.046;21.954;2022-11-23T05:21:51;97996.86;;;-0.41;74.91
36138;BME280;22194;50.046;21.954;2022-11-23T05:24:23;97997.22;;;-0.41;74.93
36138;BME280;22194;50.046;21.954;2022-11-23T05:26:51;97995.69;;;-0.41;75.04
36138;BME280;22194;50.046;21.954;2022-11-23T05:29:23;97990.45;;;-0.41;75.01
36138;BME280;22194;50.046;21.954;2022-11-23T05:31:51;97990.27;;;-0.41;74.98
36138;BME280;22194;50.046;21.954;2022-11-23T05:34:19;97987.31;;;-0.41;75.04
36138;BME280;22194;50.046;21.954;2022-11-23T05:36:47;97985.97;;;-0.42;74.99
36138;BME280;22194;50.046;21.954;2022-11-23T05:39:15;97990.30;;;-0.46;74.93
36138;BME280;22194;50.046;21.954;2022-11-23T05:41:46;97996.40;;;-0.50;75.00
36138;BME280;22194;50.046;21.954;2022-11-23T05:44:14;98004.20;;;-0.53;75.11
36138;BME280;22194;50.046;21.954;2022-11-23T05:46:41;98004.69;;;-0.52;75.12
36138;BME280;22194;50.046;21.954;2022-11-23T05:49:09;98004.77;;;-0.50;75.04
36138;BME280;22194;50.046;21.954;2022-11-23T05:51:37;97996.06;;;-0.50;75.22
36138;BME280;22194;50.046;21.954;2022-11-23T05:54:05;97993.61;;;-0.54;75.06
36138;BME280;22194;50.046;21.954;2022-11-23T05:56:34;97988.17;;;-0.53;75.19
36138;BME280;22194;50.046;21.954;2022-11-23T05:59:10;97983.48;;;-0.53;75.18
36138;BME280;22194;50.046;21.954;2022-11-23T06:01:41;97979.55;;;-0.55;75.26
36138;BME280;22194;50.046;21.954;2022-11-23T06:04:12;97991.10;;;-0.56;75.18
36138;BME280;22194;50.046;21.954;2022-11-23T06:06:47;98004.84;;;-0.56;75.31
36138;BME280;22194;50.046;21.954;2022-11-23T06:09:17;98009.33;;;-0.55;75.20
36138;BME280;22194;50.046;21.954;2022-11-23T06:11:50;98012.14;;;-0.55;75.37
36138;BME280;22194;50.046;21.954;2022-11-23T06:14:18;98004.45;;;-0.55;75.16
36138;BME280;22194;50.046;21.954;2022-11-23T06:16:50;97995.00;;;-0.54;75.18
36138;BME280;22194;50.046;21.954;2022-11-23T06:19:18;97998.83;;;-0.54;75.33
36138;BME280;22194;50.046;21.954;2022-11-23T06:21:46;98001.63;;;-0.54;75.29
36138;BME280;22194;50.046;21.954;2022-11-23T06:24:17;98014.04;;;-0.55;75.32
36138;BME280;22194;50.046;21.954;2022-11-23T06:26:45;98026.66;;;-0.53;75.29
36138;BME280;22194;50.046;21.954;2022-11-23T06:29:20;98032.17;;;-0.51;75.38
36138;BME280;22194;50.046;21.954;2022-11-23T06:31:49;98031.36;;;-0.49;75.38
36138;BME280;22194;50.046;21.954;2022-11-23T06:34:16;98035.27;;;-0.47;75.44
36138;BME280;22194;50.046;21.954;2022-11-23T06:36:45;98041.73;;;-0.47;75.45
36138;BME280;22194;50.046;21.954;2022-11-23T06:39:15;98048.21;;;-0.43;75.41
36138;BME280;22194;50.046;21.954;2022-11-23T06:41:48;98052.26;;;-0.41;75.46
36138;BME280;22194;50.046;21.954;2022-11-23T06:44:21;98050.38;;;-0.38;75.40
36138;BME280;22194;50.046;21.954;2022-11-23T06:46:53;98058.32;;;-0.36;75.42
36138;BME280;22194;50.046;21.954;2022-11-23T06:49:22;98061.41;;;-0.35;75.66
36138;BME280;22194;50.046;21.954;2022-11-23T06:51:54;98058.10;;;-0.35;75.40
36138;BME280;22194;50.046;21.954;2022-11-23T06:54:22;98057.36;;;-0.34;75.43
36138;BME280;22194;50.046;21.954;2022-11-23T06:56:56;98057.80;;;-0.32;75.50
36138;BME280;22194;50.046;21.954;2022-11-23T06:59:24;98051.70;;;-0.32;75.46
36138;BME280;22194;50.046;21.954;2022-11-23T07:01:52;98054.45;;;-0.31;75.48
36138;BME280;22194;50.046;21.954;2022-11-23T07:04:19;98056.66;;;-0.30;75.48
36138;BME280;22194;50.046;21.954;2022-11-23T07:06:47;98053.30;;;-0.29;75.53
36138;BME280;22194;50.046;21.954;2022-11-23T07:09:15;98050.48;;;-0.28;75.54
36138;BME280;22194;50.046;21.954;2022-11-23T07:11:45;98044.83;;;-0.26;75.49
36138;BME280;22194;50.046;21.954;2022-11-23T07:14:18;98036.42;;;-0.25;75.58
36138;BME280;22194;50.046;21.954;2022-11-23T07:16:45;98038.23;;;-0.27;75.53
36138;BME280;22194;50.046;21.954;2022-11-23T07:19:13;98043.25;;;-0.26;75.64
36138;BME280;22194;50.046;21.954;2022-11-23T07:21:41;98035.67;;;-0.24;75.63
36138;BME280;22194;50.046;21.954;2022-11-23T07:24:09;98031.00;;;-0.25;75.42
36138;BME280;22194;50.046;21.954;2022-11-23T07:26:37;98036.23;;;-0.25;75.62
36138;BME280;22194;50.046;21.954;2022-11-23T07:29:05;98043.70;;;-0.24;75.60
36138;BME280;22194;50.046;21.954;2022-11-23T07:31:33;98038.16;;;-0.22;75.70
36138;BME280;22194;50.046;21.954;2022-11-23T07:34:04;98030.24;;;-0.20;75.78
36138;BME280;22194;50.046;21.954;2022-11-23T07:36:40;98023.07;;;-0.19;75.73
36138;BME280;22194;50.046;21.954;2022-11-23T07:39:10;98025.10;;;-0.18;75.57
36138;BME280;22194;50.046;21.954;2022-11-23T07:41:38;98019.38;;;-0.19;75.66
36138;BME280;22194;50.046;21.954;2022-11-23T07:44:05;98015.67;;;-0.18;75.84
36138;BME280;22194;50.046;21.954;2022-11-23T07:46:37;98014.46;;;-0.18;75.90
36138;BME280;22194;50.046;21.954;2022-11-23T07:49:04;98009.52;;;-0.20;75.65
36138;BME280;22194;50.046;21.954;2022-11-23T07:51:36;98012.09;;;-0.19;75.70
36138;BME280;22194;50.046;21.954;2022-11-23T07:54:04;98013.41;;;-0.18;75.83
36138;BME280;22194;50.046;21.954;2022-11-23T07:56:32;98011.79;;;-0.17;75.86
36138;BME280;22194;50.046;21.954;2022-11-23T07:59:00;98010.66;;;-0.14;75.67
36138;BME280;22194;50.046;21.954;2022-11-23T08:01:28;98018.48;;;-0.10;75.84
36138;BME280;22194;50.046;21.954;2022-11-23T08:04:02;98016.35;;;-0.05;75.97
36138;BME280;22194;50.046;21.954;2022-11-23T08:06:36;98025.59;;;-0.02;75.98
36138;BME280;22194;50.046;21.954;2022-11-23T08:09:04;98039.70;;;-0.02;75.84
36138;BME280;22194;50.046;21.954;2022-11-23T08:11:35;98043.43;;;0.01;75.87
36138;BME280;22194;50.046;21.954;2022-11-23T08:14:03;98044.72;;;0.03;75.95
36138;BME280;22194;50.046;21.954;2022-11-23T08:16:32;98049.52;;;0.05;75.97
36138;BME280;22194;50.046;21.954;2022-11-23T08:19:00;98054.62;;;0.08;75.93
36138;BME280;22194;50.046;21.954;2022-11-23T08:21:27;98051.32;;;0.11;75.85
36138;BME280;22194;50.046;21.954;2022-11-23T08:23:55;98047.59;;;0.17;75.97
36138;BME280;22194;50.046;21.954;2022-11-23T08:26:28;98036.26;;;0.20;76.02
36138;BME280;22194;50.046;21.954;2022-11-23T08:29:00;98026.70;;;0.20;75.75
36138;BME280;22194;50.046;21.954;2022-11-23T08:31:32;98029.27;;;0.21;75.99
36138;BME280;22194;50.046;21.954;2022-11-23T08:34:00;98022.58;;;0.22;76.01
36138;BME280;22194;50.046;21.954;2022-11-23T08:36:33;98027.14;;;0.21;75.95
36138;BME280;22194;50.046;21.954;2022-11-23T08:39:01;98034.04;;;0.23;75.95
36138;BME280;22194;50.046;21.954;2022-11-23T08:41:30;98035.09;;;0.23;75.99
36138;BME280;22194;50.046;21.954;2022-11-23T08:43:58;98031.48;;;0.22;75.94
36138;BME280;22194;50.046;21.954;2022-11-23T08:46:30;98039.89;;;0.21;75.97
36138;BME280;22194;50.046;21.954;2022-11-23T08:48:59;98048.11;;;0.20;75.91
36138;BME280;22194;50.046;21.954;2022-11-23T08:51:36;98051.77;;;0.17;75.83
36138;BME280;22194;50.046;21.954;2022-11-23T08:54:04;98052.93;;;0.14;75.88
36138;BME280;22194;50.046;21.954;2022-11-23T08:56:32;98046.36;;;0.13;75.93
36138;BME280;22194;50.046;21.954;2022-11-23T08:59:00;98047.80;;;0.12;75.97
36138;BME280;22194;50.046;21.954;2022-11-23T09:01:29;98046.39;;;0.12;76.03
36138;BME280;22194;50.046;21.954;2022-11-23T09:03:59;98044.00;;;0.15;76.06
36138;BME280;22194;50.046;21.954;2022-11-23T09:06:35;98037.39;;;0.15;76.00
36138;BME280;22194;50.046;21.954;2022-11-23T09:09:03;98036.86;;;0.14;75.97
36138;BME280;22194;50.046;21.954;2022-11-23T09:11:34;98028.66;;;0.15;75.92
36138;BME280;22194;50.046;21.954;2022-11-23T09:14:05;98022.92;;;0.15;76.04
36138;BME280;22194;50.046;21.954;2022-11-23T09:16:34;98019.59;;;0.15;76.15
36138;BME280;22194;50.046;21.954;2022-11-23T09:19:02;98016.41;;;0.16;75.93
36138;BME280;22194;50.046;21.954;2022-11-23T09:21:32;98011.80;;;0.18;76.16
36138;BME280;22194;50.046;21.954;2022-11-23T09:24:05;98012.93;;;0.20;76.04
36138;BME280;22194;50.046;21.954;2022-11-23T09:26:33;98013.67;;;0.22;76.01
36138;BME280;22194;50.046;21.954;2022-11-23T09:29:04;98029.61;;;0.24;76.19
36138;BME280;22194;50.046;21.954;2022-11-23T09:31:34;98027.88;;;0.24;76.04
36138;BME280;22194;50.046;21.954;2022-11-23T09:34:10;98030.77;;;0.25;75.95
36138;BME280;22194;50.046;21.954;2022-11-23T09:36:38;98018.86;;;0.27;76.13
36138;BME280;22194;50.046;21.954;2022-11-23T09:39:06;98023.26;;;0.26;76.05
36138;BME280;22194;50.046;21.954;2022-11-23T09:50:52;98031.28;;;0.22;75.99
36138;BME280;22194;50.046;21.954;2022-11-23T09:53:29;98030.29;;;0.21;76.05
36138;BME280;22194;50.046;21.954;2022-11-23T09:56:07;98021.75;;;0.21;76.18
36138;BME280;22194;50.046;21.954;2022-11-23T09:58:42;98016.40;;;0.20;75.91
36138;BME280;22194;50.046;21.954;2022-11-23T10:01:15;98013.17;;;0.22;76.26
36138;BME280;22194;50.046;21.954;2022-11-23T10:03:44;98014.58;;;0.25;76.08
36138;BME280;22194;50.046;21.954;2022-11-23T10:06:22;98010.63;;;0.27;76.25
36138;BME280;22194;50.046;21.954;2022-11-23T10:12:11;97996.11;;;0.25;76.05
36138;BME280;22194;50.046;21.954;2022-11-23T10:15:27;97987.48;;;0.27;76.19
36138;BME280;22194;50.046;21.954;2022-11-23T10:18:32;97982.95;;;0.27;76.27
36138;BME280;22194;50.046;21.954;2022-11-23T10:24:15;97961.19;;;0.22;76.16
36138;BME280;22194;50.046;21.954;2022-11-23T10:26:48;97963.91;;;0.20;76.14
36138;BME280;22194;50.046;21.954;2022-11-23T10:31:58;97956.51;;;0.22;76.13
36138;BME280;22194;50.046;21.954;2022-11-23T10:34:45;97955.14;;;0.21;76.14
36138;BME280;22194;50.046;21.954;2022-11-23T10:37:21;97952.29;;;0.19;76.03
36138;BME280;22194;50.046;21.954;2022-11-23T10:39:49;97954.09;;;0.18;76.29
36138;BME280;22194;50.046;21.954;2022-11-23T10:44:59;97960.79;;;0.20;76.32
36138;BME280;22194;50.046;21.954;2022-11-23T10:47:49;97962.09;;;0.22;76.36
36138;BME280;22194;50.046;21.954;2022-11-23T10:50:33;97958.41;;;0.19;76.25
36138;BME280;22194;50.046;21.954;2022-11-23T10:53:27;97958.15;;;0.17;76.29
36138;BME280;22194;50.046;21.954;2022-11-23T10:55:59;97963.73;;;0.17;76.31
36138;BME280;22194;50.046;21.954;2022-11-23T10:58:41;97960.19;;;0.18;76.32
36138;BME280;22194;50.046;21.954;2022-11-23T11:01:23;97965.36;;;0.19;76.35
36138;BME280;22194;50.046;21.954;2022-11-23T11:04:01;97964.80;;;0.23;76.33
36138;BME280;22194;50.046;21.954;2022-11-23T11:06:32;97960.48;;;0.26;76.28
36138;BME280;22194;50.046;21.954;2022-11-23T11:09:16;97958.09;;;0.28;76.30
36138;BME280;22194;50.046;21.954;2022-11-23T11:11:55;97957.26;;;0.32;76.53
36138;BME280;22194;50.046;21.954;2022-11-23T11:14:23;97950.23;;;0.33;76.34
36138;BME280;22194;50.046;21.954;2022-11-23T11:16:56;97944.77;;;0.34;76.20
36138;BME280;22194;50.046;21.954;2022-11-23T11:19:29;97945.17;;;0.36;76.40
36138;BME280;22194;50.046;21.954;2022-11-23T11:22:23;97943.30;;;0.39;76.33
36138;BME280;22194;50.046;21.954;2022-11-23T11:24:53;97942.84;;;0.41;76.42
36138;BME280;22194;50.046;21.954;2022-11-23T11:27:25;97942.90;;;0.43;76.58
36138;BME280;22194;50.046;21.954;2022-11-23T11:30:06;97944.05;;;0.45;76.50
36138;BME280;22194;50.046;21.954;2022-11-23T11:35:24;97948.92;;;0.52;76.59
36138;BME280;22194;50.046;21.954;2022-11-23T11:38:10;97952.44;;;0.55;76.55
36138;BME280;22194;50.046;21.954;2022-11-23T11:43:19;97948.60;;;0.62;76.55
36138;BME280;22194;50.046;21.954;2022-11-23T11:49:16;97952.71;;;0.64;76.41
36138;BME280;22194;50.046;21.954;2022-11-23T11:52:16;97957.37;;;0.62;76.55
36138;BME280;22194;50.046;21.954;2022-11-23T11:55:00;97955.71;;;0.60;76.52
36138;BME280;22194;50.046;21.954;2022-11-23T11:58:02;97963.27;;;0.59;76.37
36138;BME280;22194;50.046;21.954;2022-11-23T12:00:37;97960.89;;;0.61;76.36
36138;BME280;22194;50.046;21.954;2022-11-23T12:05:51;97961.41;;;0.64;76.63
36138;BME280;22194;50.046;21.954;2022-11-23T12:08:32;97962.10;;;0.68;76.52
36138;BME280;22194;50.046;21.954;2022-11-23T12:11:04;97962.98;;;0.71;76.45
36138;BME280;22194;50.046;21.954;2022-11-23T12:13:43;97963.92;;;0.73;76.55
36138;BME280;22194;50.046;21.954;2022-11-23T12:35:47;97962.40;;;0.72;76.71
36138;BME280;22194;50.046;21.954;2022-11-23T12:47:14;97947.85;;;0.74;76.64
36138;BME280;22194;50.046;21.954;2022-11-23T12:53:24;97930.33;;;0.75;76.46
36138;BME280;22194;50.046;21.954;2022-11-23T12:58:36;97931.44;;;0.74;76.45
36138;BME280;22194;50.046;21.954;2022-11-23T13:01:11;97919.80;;;0.73;76.36
36138;BME280;22194;50.046;21.954;2022-11-23T13:12:44;97952.04;;;0.70;76.41
36138;BME280;22194;50.046;21.954;2022-11-23T13:15:38;97954.40;;;0.68;76.46
36138;BME280;22194;50.046;21.954;2022-11-23T13:19:26;97955.39;;;0.66;76.42
36138;BME280;22194;50.046;21.954;2022-11-23T13:21:53;97953.65;;;0.63;76.66
36138;BME280;22194;50.046;21.954;2022-11-23T13:24:37;97945.73;;;0.61;76.32
36138;BME280;22194;50.046;21.954;2022-11-23T13:40:46;97946.70;;;0.55;76.51
36138;BME280;22194;50.046;21.954;2022-11-23T13:43:29;97942.72;;;0.54;76.37
36138;BME280;22194;50.046;21.954;2022-11-23T13:46:27;97942.18;;;0.51;76.58
36138;BME280;22194;50.046;21.954;2022-11-23T13:49:00;97942.91;;;0.50;76.49
36138;BME280;22194;50.046;21.954;2022-11-23T13:51:33;97942.40;;;0.50;76.48
36138;BME280;22194;50.046;21.954;2022-11-23T13:54:05;97939.67;;;0.49;76.41
36138;BME280;22194;50.046;21.954;2022-11-23T13:56:58;97933.17;;;0.46;76.50
36138;BME280;22194;50.046;21.954;2022-11-23T13:59:36;97929.44;;;0.48;76.44
36138;BME280;22194;50.046;21.954;2022-11-23T14:04:46;97935.86;;;0.48;76.59
36138;BME280;22194;50.046;21.954;2022-11-23T14:07:25;97936.75;;;0.48;76.31
36138;BME280;22194;50.046;21.954;2022-11-23T14:10:22;97937.27;;;0.48;76.47
36138;BME280;22194;50.046;21.954;2022-11-23T14:13:17;97934.44;;;0.49;76.47
36138;BME280;22194;50.046;21.954;2022-11-23T14:15:57;97935.15;;;0.49;76.65
36138;BME280;22194;50.046;21.954;2022-11-23T14:18:40;97940.20;;;0.45;76.48
36138;BME280;22194;50.046;21.954;2022-11-23T14:35:48;97946.08;;;0.43;76.63
36138;BME280;22194;50.046;21.954;2022-11-23T14:38:46;97945.33;;;0.43;76.58
36138;BME280;22194;50.046;21.954;2022-11-23T14:41:28;97952.05;;;0.45;76.50
36138;BME280;22194;50.046;21.954;2022-11-23T14:44:01;97954.27;;;0.47;76.51
36138;BME280;22194;50.046;21.954;2022-11-23T14:46:31;97953.11;;;0.49;76.78
36138;BME280;22194;50.046;21.954;2022-11-23T14:49:11;97950.09;;;0.50;76.68
36138;BME280;22194;50.046;21.954;2022-11-23T14:51:42;97956.55;;;0.50;76.58
36138;BME280;22194;50.046;21.954;2022-11-23T14:54:19;97961.45;;;0.50;76.64
36138;BME280;22194;50.046;21.954;2022-11-23T14:56:55;97958.65;;;0.49;76.65
36138;BME280;22194;50.046;21.954;2022-11-23T14:59:32;97955.57;;;0.48;76.68
36138;BME280;22194;50.046;21.954;2022-11-23T15:05:22;97967.86;;;0.50;76.56
36138;BME280;22194;50.046;21.954;2022-11-23T15:08:30;97969.39;;;0.51;76.57
36138;BME280;22194;50.046;21.954;2022-11-23T15:11:11;97968.02;;;0.50;76.48
36138;BME280;22194;50.046;21.954;2022-11-23T15:13:56;97973.87;;;0.52;76.64
36138;BME280;22194;50.046;21.954;2022-11-23T15:16:39;97980.34;;;0.52;76.48
36138;BME280;22194;50.046;21.954;2022-11-23T15:19:28;97977.36;;;0.52;76.61